createdAt,value
2023-05-21T00:02:13.067Z,21.43
2023-05-21T00:04:41.496Z,21.47
2023-05-21T00:07:08.777Z,21.48
2023-05-21T00:09:36.891Z,21.50
2023-05-21T00:12:04.549Z,21.47
2023-05-21T00:14:33.624Z,21.42
2023-05-21T00:17:00.806Z,21.50
2023-05-21T00:19:28.082Z,21.83
2023-05-21T00:21:55.251Z,21.95
2023-05-21T00:24:22.342Z,22.06
2023-05-21T00:26:49.639Z,22.19
2023-05-21T00:29:16.810Z,22.14
2023-05-21T00:31:45.591Z,22.18
2023-05-21T00:36:40.376Z,22.46
2023-05-21T00:39:07.620Z,22.43
2023-05-21T00:41:34.850Z,22.39
2023-05-21T00:44:02.050Z,22.40
2023-05-21T00:46:29.748Z,22.42
2023-05-21T00:49:00.460Z,22.36
2023-05-21T00:51:28.101Z,22.28
2023-05-21T00:53:55.536Z,22.22
2023-05-21T00:56:24.639Z,22.18
2023-05-21T00:58:52.531Z,22.18
2023-05-21T01:01:19.806Z,22.06
2023-05-21T01:03:47.764Z,22.06
2023-05-21T01:06:16.427Z,22.00
2023-05-21T01:08:43.930Z,21.96
2023-05-21T01:11:11.831Z,22.01
2023-05-21T01:13:41.429Z,22.01
2023-05-21T01:16:10.469Z,22.02
2023-05-21T01:18:38.523Z,21.98
2023-05-21T01:21:06.671Z,22.13
2023-05-21T01:23:35.529Z,21.88
2023-05-21T01:26:02.792Z,21.77
2023-05-21T01:28:30.146Z,21.66
2023-05-21T01:31:14.019Z,21.68
2023-05-21T01:33:49.084Z,21.61
2023-05-21T01:36:22.301Z,21.54
2023-05-21T01:39:01.575Z,21.43
2023-05-21T01:41:32.806Z,21.40
2023-05-21T01:44:02.329Z,21.36
2023-05-21T01:46:33.608Z,21.57
2023-05-21T01:49:02.334Z,21.47
2023-05-21T01:51:30.266Z,21.48
2023-05-21T01:53:58.848Z,21.47
2023-05-21T01:56:26.038Z,21.39
2023-05-21T01:58:53.352Z,21.35
2023-05-21T02:01:20.494Z,21.32
2023-05-21T02:03:47.757Z,21.27
2023-05-21T02:06:15.032Z,21.19
2023-05-21T02:08:42.138Z,21.19
2023-05-21T02:11:10.810Z,21.15
2023-05-21T02:13:37.988Z,21.08
2023-05-21T02:16:05.760Z,21.08
2023-05-21T02:18:32.891Z,21.16
2023-05-21T02:21:00.157Z,21.10
2023-05-21T02:23:27.235Z,21.04
2023-05-21T02:25:54.434Z,21.01
2023-05-21T02:28:23.155Z,21.11
2023-05-21T02:30:50.318Z,21.09
2023-05-21T02:33:17.491Z,21.14
2023-05-21T02:35:44.900Z,21.24
2023-05-21T02:38:12.080Z,21.12
2023-05-21T02:40:39.343Z,21.08
2023-05-21T02:43:06.663Z,21.07
2023-05-21T02:45:35.508Z,20.99
2023-05-21T02:48:03.125Z,20.91
2023-05-21T02:50:30.296Z,20.90
2023-05-21T02:52:57.441Z,20.90
2023-05-21T02:55:24.640Z,20.89
2023-05-21T02:57:51.949Z,20.88
2023-05-21T03:00:19.199Z,20.83
2023-05-21T03:02:47.864Z,20.79
2023-05-21T03:05:15.126Z,20.77
2023-05-21T03:07:42.392Z,20.74
2023-05-21T03:10:10.720Z,20.73
2023-05-21T03:12:38.086Z,20.73
2023-05-21T03:15:06.352Z,20.89
2023-05-21T03:17:33.746Z,20.82
2023-05-21T03:20:02.360Z,20.80
2023-05-21T03:22:29.685Z,20.77
2023-05-21T03:24:56.867Z,20.77
2023-05-21T03:27:24.209Z,20.78
2023-05-21T03:29:51.346Z,20.68
2023-05-21T03:32:18.732Z,20.71
2023-05-21T03:34:45.907Z,20.68
2023-05-21T03:37:14.677Z,20.62
2023-05-21T03:39:41.886Z,20.58
2023-05-21T03:42:09.153Z,20.56
2023-05-21T03:44:36.344Z,20.56
2023-05-21T03:47:03.690Z,20.46
2023-05-21T03:49:30.853Z,20.47
2023-05-21T03:51:58.019Z,20.45
2023-05-21T03:54:26.556Z,20.45
2023-05-21T03:56:53.756Z,20.44
2023-05-21T03:59:20.828Z,20.38
2023-05-21T04:01:48.031Z,20.46
2023-05-21T04:04:15.430Z,20.51
2023-05-21T04:06:42.869Z,20.47
2023-05-21T04:09:10.033Z,20.56
2023-05-21T04:11:38.610Z,20.59
2023-05-21T04:14:05.990Z,20.59
2023-05-21T04:16:33.235Z,20.71
2023-05-21T04:19:00.481Z,20.97
2023-05-21T04:21:27.711Z,20.85
2023-05-21T04:23:55.007Z,20.85
2023-05-21T04:26:22.188Z,20.79
2023-05-21T04:28:50.725Z,20.76
2023-05-21T04:31:18.023Z,20.71
2023-05-21T04:33:45.206Z,20.69
2023-05-21T04:36:12.570Z,20.59
2023-05-21T04:38:39.771Z,20.59
2023-05-21T04:41:07.034Z,20.59
2023-05-21T04:43:34.174Z,20.57
2023-05-21T04:46:02.763Z,20.55
2023-05-21T04:48:30.088Z,20.58
2023-05-21T04:50:57.319Z,20.65
2023-05-21T04:53:24.587Z,20.68
2023-05-21T04:55:51.836Z,20.67
2023-05-21T04:58:18.998Z,20.74
2023-05-21T05:00:46.526Z,20.72
2023-05-21T05:03:15.572Z,20.71
2023-05-21T05:05:43.027Z,20.75
2023-05-21T05:08:10.287Z,20.77
2023-05-21T05:10:37.465Z,20.79
2023-05-21T05:13:04.708Z,20.82
2023-05-21T05:15:31.987Z,20.85
2023-05-21T05:17:59.413Z,20.90
2023-05-21T05:20:28.114Z,20.93
2023-05-21T05:22:55.392Z,20.94
2023-05-21T05:25:22.676Z,21.08
2023-05-21T05:27:49.880Z,21.11
2023-05-21T05:30:17.398Z,21.13
2023-05-21T05:32:44.571Z,21.15
2023-05-21T05:35:11.952Z,21.20
2023-05-21T05:37:40.567Z,21.23
2023-05-21T05:40:08.798Z,21.28
2023-05-21T05:42:35.925Z,21.38
2023-05-21T05:45:03.682Z,21.44
2023-05-21T05:47:30.884Z,21.44
2023-05-21T05:49:58.207Z,21.49
2023-05-21T05:52:25.393Z,21.49
2023-05-21T05:54:54.039Z,21.58
2023-05-21T05:57:21.232Z,21.64
2023-05-21T05:59:48.437Z,21.67
2023-05-21T06:02:15.805Z,21.70
2023-05-21T06:04:43.527Z,21.72
2023-05-21T06:07:10.696Z,21.80
2023-05-21T06:09:37.885Z,21.85
2023-05-21T06:12:08.659Z,21.92
2023-05-21T06:14:36.870Z,21.98
2023-05-21T06:17:04.247Z,22.08
2023-05-21T06:19:31.534Z,22.12
2023-05-21T06:21:58.945Z,22.10
2023-05-21T06:24:26.427Z,22.17
2023-05-21T06:26:53.598Z,22.20
2023-05-21T06:29:22.297Z,22.21
2023-05-21T06:31:49.438Z,22.22
2023-05-21T06:34:16.621Z,22.23
2023-05-21T06:36:43.784Z,22.28
2023-05-21T06:39:11.041Z,22.37
2023-05-21T06:41:38.218Z,22.44
2023-05-21T06:44:05.817Z,22.52
2023-05-21T06:46:34.606Z,22.61
2023-05-21T06:49:01.931Z,22.69
2023-05-21T06:51:29.186Z,22.84
2023-05-21T06:53:56.490Z,22.90
2023-05-21T06:56:23.659Z,22.92
2023-05-21T06:58:50.992Z,23.12
2023-05-21T07:01:18.452Z,23.21
2023-05-21T07:03:47.356Z,23.34
2023-05-21T07:06:14.644Z,23.45
2023-05-21T07:08:41.850Z,23.55
2023-05-21T07:11:09.104Z,23.65
2023-05-21T07:13:36.842Z,23.83
2023-05-21T07:16:04.274Z,24.02
2023-05-21T07:18:31.841Z,24.26
2023-05-21T07:21:00.530Z,24.32
2023-05-21T07:23:27.695Z,24.37
2023-05-21T07:25:54.892Z,24.51
2023-05-21T07:28:22.011Z,24.56
2023-05-21T07:30:49.199Z,24.57
2023-05-21T07:33:16.314Z,24.59
2023-05-21T07:35:43.516Z,24.57
2023-05-21T07:38:12.135Z,24.57
2023-05-21T07:40:39.258Z,24.66
2023-05-21T07:43:06.413Z,24.74
2023-05-21T07:45:33.606Z,24.81
2023-05-21T07:48:00.805Z,24.97
2023-05-21T07:50:28.153Z,25.00
2023-05-21T07:52:55.396Z,25.04
2023-05-21T07:55:24.110Z,25.10
2023-05-21T07:57:51.291Z,25.08
2023-05-21T08:00:18.811Z,25.03
2023-05-21T08:02:46.100Z,24.99
2023-05-21T08:05:13.441Z,24.98
2023-05-21T08:07:40.839Z,25.05
2023-05-21T08:10:09.256Z,25.22
2023-05-21T08:12:37.892Z,25.37
2023-05-21T08:15:06.332Z,25.18
2023-05-21T08:17:33.600Z,25.47
2023-05-21T08:20:00.877Z,25.50
2023-05-21T08:22:28.080Z,25.36
2023-05-21T08:24:55.319Z,25.51
2023-05-21T08:27:22.594Z,25.60
2023-05-21T08:29:51.231Z,25.54
2023-05-21T08:32:18.662Z,25.53
2023-05-21T08:34:45.850Z,25.56
2023-05-21T08:37:13.003Z,25.58
2023-05-21T08:39:40.327Z,25.62
2023-05-21T08:42:25.635Z,25.62
2023-05-21T08:45:00.434Z,25.75
2023-05-21T08:47:35.063Z,26.08
2023-05-21T08:50:04.605Z,26.11
2023-05-21T08:52:32.093Z,26.19
2023-05-21T08:55:00.476Z,26.09
2023-05-21T08:57:30.768Z,26.05
2023-05-21T08:59:59.467Z,25.95
2023-05-21T09:02:27.154Z,25.82
2023-05-21T09:04:54.904Z,25.82
2023-05-21T09:07:22.815Z,25.75
2023-05-21T09:09:56.362Z,25.77
2023-05-21T09:12:24.439Z,25.74
2023-05-21T09:14:52.703Z,25.82
2023-05-21T09:17:21.356Z,25.96
2023-05-21T09:20:09.801Z,26.24
2023-05-21T09:22:37.427Z,26.38
2023-05-21T09:25:07.002Z,26.65
2023-05-21T09:27:34.385Z,26.82
2023-05-21T09:30:02.826Z,26.92
2023-05-21T09:32:31.544Z,27.18
2023-05-21T09:35:07.391Z,27.29
2023-05-21T09:37:38.424Z,27.48
2023-05-21T09:40:16.385Z,27.70
2023-05-21T09:42:46.786Z,27.77
2023-05-21T09:45:18.846Z,27.80
2023-05-21T09:47:49.831Z,27.96
2023-05-21T09:50:20.437Z,27.99
2023-05-21T09:52:48.703Z,28.06
2023-05-21T09:55:17.373Z,28.20
2023-05-21T09:57:48.137Z,28.07
2023-05-21T10:00:22.585Z,27.85
2023-05-21T10:03:02.010Z,28.09
2023-05-21T10:05:30.717Z,28.29
2023-05-21T10:08:01.983Z,28.43
2023-05-21T10:10:30.810Z,28.41
2023-05-21T10:13:01.088Z,28.33
2023-05-21T10:15:32.142Z,28.44
2023-05-21T10:18:03.673Z,28.35
2023-05-21T10:20:32.086Z,28.26
2023-05-21T10:23:00.170Z,28.35
2023-05-21T10:25:28.054Z,28.30
2023-05-21T10:27:57.264Z,28.46
2023-05-21T10:30:25.604Z,28.23
2023-05-21T10:32:56.286Z,28.52
2023-05-21T10:35:25.291Z,28.55
2023-05-21T10:37:54.461Z,28.35
2023-05-21T10:40:21.791Z,28.39
2023-05-21T10:43:19.385Z,28.28
2023-05-21T10:46:18.887Z,28.20
2023-05-21T10:49:05.768Z,28.19
2023-05-21T10:51:53.281Z,28.20
2023-05-21T10:54:53.607Z,28.07
2023-05-21T10:57:44.782Z,28.04
2023-05-21T11:00:15.948Z,28.21
2023-05-21T11:02:43.824Z,28.29
2023-05-21T11:05:11.091Z,28.15
2023-05-21T11:07:53.407Z,28.38
2023-05-21T11:10:38.601Z,27.71
2023-05-21T11:13:08.683Z,27.81
2023-05-21T11:16:13.683Z,28.17
2023-05-21T11:18:59.809Z,28.28
2023-05-21T11:21:31.076Z,27.91
2023-05-21T11:24:05.715Z,28.09
2023-05-21T11:27:01.524Z,27.93
2023-05-21T11:29:40.402Z,27.63
2023-05-21T11:32:09.449Z,27.58
2023-05-21T11:34:39.328Z,27.67
2023-05-21T11:37:26.507Z,27.60
2023-05-21T11:39:57.264Z,27.68
2023-05-21T11:42:35.333Z,27.83
2023-05-21T11:45:03.570Z,27.69
2023-05-21T11:47:32.264Z,27.65
2023-05-21T11:50:01.107Z,27.71
2023-05-21T11:52:29.871Z,27.59
2023-05-21T11:54:59.236Z,27.36
2023-05-21T11:57:29.460Z,27.43
2023-05-21T11:59:57.934Z,27.38
2023-05-21T12:02:27.486Z,27.33
2023-05-21T12:04:54.909Z,27.35
2023-05-21T12:07:22.549Z,27.13
2023-05-21T12:09:51.569Z,27.19
2023-05-21T12:12:23.187Z,27.08
2023-05-21T12:14:52.782Z,27.15
2023-05-21T12:17:21.823Z,27.02
2023-05-21T12:19:51.271Z,27.00
2023-05-21T12:22:18.406Z,26.98
2023-05-21T12:24:45.844Z,26.88
2023-05-21T12:27:14.126Z,26.85
2023-05-21T12:29:44.815Z,26.82
2023-05-21T12:32:13.895Z,26.72
2023-05-21T12:34:43.287Z,26.76
2023-05-21T12:37:12.687Z,26.71
2023-05-21T12:39:41.707Z,26.74
2023-05-21T12:42:09.759Z,26.72
2023-05-21T12:44:39.429Z,26.82
2023-05-21T12:47:08.511Z,26.79
2023-05-21T12:49:37.603Z,26.74
2023-05-21T12:52:08.289Z,26.70
2023-05-21T12:54:37.128Z,26.70
2023-05-21T12:57:08.818Z,26.72
2023-05-21T12:59:48.051Z,26.81
2023-05-21T13:02:20.300Z,26.82
2023-05-21T13:04:48.392Z,26.86
2023-05-21T13:07:16.167Z,26.88
2023-05-21T13:09:43.795Z,26.84
2023-05-21T13:12:12.889Z,26.98
2023-05-21T13:14:40.052Z,26.78
2023-05-21T13:17:07.517Z,27.05
2023-05-21T13:19:36.299Z,27.04
2023-05-21T13:22:03.789Z,27.16
2023-05-21T13:24:31.065Z,27.10
2023-05-21T13:26:58.289Z,27.26
2023-05-21T13:29:25.475Z,27.22
2023-05-21T13:31:52.751Z,27.48
2023-05-21T13:34:19.907Z,27.38
2023-05-21T13:36:48.527Z,27.50
2023-05-21T13:39:15.750Z,27.56
2023-05-21T13:41:43.451Z,27.60
2023-05-21T13:44:10.646Z,27.70
2023-05-21T13:46:37.947Z,27.82
2023-05-21T13:49:05.568Z,27.96
2023-05-21T13:51:39.230Z,28.00
2023-05-21T13:54:08.129Z,28.17
2023-05-21T13:56:35.386Z,28.18
2023-05-21T13:59:02.587Z,28.28
2023-05-21T14:01:29.867Z,28.30
2023-05-21T14:03:57.287Z,28.24
2023-05-21T14:06:24.507Z,28.37
2023-05-21T14:08:51.907Z,28.40
2023-05-21T14:11:21.286Z,28.38
2023-05-21T14:13:48.617Z,27.88
2023-05-21T14:16:15.985Z,28.18
2023-05-21T14:18:43.242Z,28.19
2023-05-21T14:21:10.489Z,28.17
2023-05-21T14:23:37.728Z,28.11
2023-05-21T14:26:05.390Z,27.95
2023-05-21T14:28:34.073Z,28.05
2023-05-21T14:31:01.481Z,27.97
2023-05-21T14:33:28.631Z,27.97
2023-05-21T14:35:55.858Z,27.87
2023-05-21T14:38:23.106Z,27.91
2023-05-21T14:40:50.389Z,27.92
2023-05-21T14:43:17.508Z,27.88
2023-05-21T14:45:46.373Z,27.84
2023-05-21T14:48:13.656Z,27.80
2023-05-21T14:50:41.214Z,27.64
2023-05-21T14:53:10.032Z,27.58
2023-05-21T14:55:38.746Z,27.69
2023-05-21T14:58:06.922Z,27.74
2023-05-21T15:00:35.539Z,27.79
2023-05-21T15:03:04.915Z,27.82
2023-05-21T15:05:32.648Z,27.80
2023-05-21T15:08:00.301Z,27.72
2023-05-21T15:10:28.579Z,27.89
2023-05-21T15:12:55.975Z,27.95
2023-05-21T15:15:23.364Z,27.86
2023-05-21T15:17:51.197Z,27.94
2023-05-21T15:20:19.980Z,28.04
2023-05-21T15:22:47.636Z,28.01
2023-05-21T15:25:14.927Z,27.76
2023-05-21T15:27:50.804Z,27.65
2023-05-21T15:30:18.124Z,27.72
2023-05-21T15:32:45.343Z,27.73
2023-05-21T15:35:12.572Z,27.67
2023-05-21T15:37:39.908Z,27.72
2023-05-21T15:40:08.663Z,27.66
2023-05-21T15:42:35.829Z,27.49
2023-05-21T15:45:05.452Z,27.51
2023-05-21T15:47:32.722Z,27.58
2023-05-21T15:49:59.950Z,27.56
2023-05-21T15:52:27.171Z,27.57
2023-05-21T15:54:54.881Z,27.53
2023-05-21T15:57:22.160Z,27.48
2023-05-21T15:59:49.423Z,27.45
2023-05-21T16:02:18.086Z,27.41
2023-05-21T16:04:45.349Z,27.41
2023-05-21T16:07:12.629Z,27.32
2023-05-21T16:09:39.720Z,27.30
2023-05-21T16:12:07.495Z,27.34
2023-05-21T16:14:34.670Z,27.32
2023-05-21T16:17:01.894Z,27.32
2023-05-21T16:19:30.673Z,27.29
2023-05-21T16:21:57.972Z,27.25
2023-05-21T16:24:25.046Z,27.24
2023-05-21T16:26:52.248Z,27.22
2023-05-21T16:29:19.381Z,27.22
2023-05-21T16:31:47.673Z,27.17
2023-05-21T16:34:14.805Z,27.10
2023-05-21T16:36:43.683Z,27.12
2023-05-21T16:39:10.868Z,26.95
2023-05-21T16:41:38.066Z,27.05
2023-05-21T16:44:05.322Z,27.10
2023-05-21T16:46:32.460Z,27.08
2023-05-21T16:48:59.930Z,27.16
2023-05-21T16:51:27.124Z,27.16
2023-05-21T16:53:55.705Z,27.20
2023-05-21T16:56:22.888Z,27.18
2023-05-21T16:58:50.085Z,27.20
2023-05-21T17:01:17.356Z,27.26
2023-05-21T17:03:44.846Z,27.26
2023-05-21T17:06:12.125Z,27.25
2023-05-21T17:08:39.334Z,27.26
2023-05-21T17:11:08.171Z,27.22
2023-05-21T17:13:35.417Z,27.23
2023-05-21T17:16:02.862Z,27.21
2023-05-21T17:18:30.138Z,27.19
2023-05-21T17:20:57.607Z,27.21
2023-05-21T17:23:24.790Z,27.18
2023-05-21T17:25:52.052Z,27.12
2023-05-21T17:28:20.969Z,27.15
2023-05-21T17:30:49.669Z,27.00
2023-05-21T17:33:17.149Z,27.13
2023-05-21T17:35:44.368Z,27.18
2023-05-21T17:38:11.506Z,27.20
2023-05-21T17:40:38.832Z,27.18
2023-05-21T17:43:06.034Z,27.12
2023-05-21T17:45:34.727Z,27.14
2023-05-21T17:48:02.038Z,27.15
2023-05-21T17:50:29.207Z,27.10
2023-05-21T17:52:56.364Z,27.05
2023-05-21T17:55:23.767Z,27.02
2023-05-21T17:57:51.485Z,27.03
2023-05-21T18:00:19.724Z,26.96
2023-05-21T18:02:48.334Z,26.93
2023-05-21T18:05:15.609Z,26.88
2023-05-21T18:07:42.722Z,26.88
2023-05-21T18:10:10.387Z,26.84
2023-05-21T18:12:37.582Z,26.78
2023-05-21T18:15:05.741Z,26.82
2023-05-21T18:17:32.938Z,26.75
2023-05-21T18:20:01.474Z,26.80
2023-05-21T18:22:28.658Z,26.76
2023-05-21T18:24:55.912Z,26.80
2023-05-21T18:27:23.088Z,26.73
2023-05-21T18:29:50.261Z,26.70
2023-05-21T18:32:17.705Z,26.71
2023-05-21T18:34:45.123Z,26.91
2023-05-21T18:37:13.682Z,27.13
2023-05-21T18:39:40.827Z,26.97
2023-05-21T18:42:13.592Z,27.07
2023-05-21T18:44:41.415Z,27.14
2023-05-21T18:47:08.680Z,26.93
2023-05-21T18:49:36.348Z,26.76
2023-05-21T18:52:04.390Z,26.67
2023-05-21T18:54:33.018Z,26.58
2023-05-21T18:57:00.644Z,26.44
2023-05-21T18:59:29.218Z,26.33
2023-05-21T19:01:56.440Z,26.34
2023-05-21T19:04:23.625Z,26.35
2023-05-21T19:06:50.767Z,26.34
2023-05-21T19:09:17.882Z,26.33
2023-05-21T19:11:46.546Z,26.32
2023-05-21T19:14:13.908Z,26.34
2023-05-21T19:16:41.295Z,26.32
2023-05-21T19:19:08.609Z,26.29
2023-05-21T19:21:36.200Z,26.27
2023-05-21T19:24:05.836Z,26.23
2023-05-21T19:26:33.643Z,26.19
2023-05-21T19:29:02.403Z,26.19
2023-05-21T19:31:29.660Z,26.15
2023-05-21T19:33:56.812Z,26.09
2023-05-21T19:36:25.041Z,25.91
2023-05-21T19:38:52.389Z,25.82
2023-05-21T19:41:20.428Z,25.39
2023-05-21T19:43:47.542Z,25.43
2023-05-21T19:46:19.805Z,25.46
2023-05-21T19:48:47.994Z,25.47
2023-05-21T19:51:16.017Z,25.50
2023-05-21T19:53:43.133Z,25.50
2023-05-21T19:56:10.388Z,25.55
2023-05-21T19:58:37.608Z,25.61
2023-05-21T20:01:05.288Z,25.64
2023-05-21T20:03:34.105Z,25.65
2023-05-21T20:06:01.926Z,25.63
2023-05-21T20:08:29.255Z,25.59
2023-05-21T20:10:56.698Z,25.57
2023-05-21T20:13:24.031Z,25.57
2023-05-21T20:15:51.479Z,25.56
2023-05-21T20:18:18.756Z,25.57
2023-05-21T20:20:48.095Z,25.60
2023-05-21T20:23:15.353Z,25.61
2023-05-21T20:25:42.570Z,25.61
2023-05-21T20:28:09.829Z,25.56
2023-05-21T20:30:53.983Z,25.56
2023-05-21T20:33:21.227Z,25.53
2023-05-21T20:35:50.049Z,25.51
2023-05-21T20:38:17.358Z,25.49
2023-05-21T20:40:44.906Z,25.45
2023-05-21T20:43:12.167Z,25.42
2023-05-21T20:45:39.807Z,25.43
2023-05-21T20:48:08.246Z,25.39
2023-05-21T20:50:35.575Z,25.35
2023-05-21T20:53:04.503Z,25.31
2023-05-21T20:55:31.744Z,25.30
2023-05-21T20:57:58.869Z,25.29
2023-05-21T21:00:26.250Z,25.27
2023-05-21T21:02:53.566Z,25.26
2023-05-21T21:05:20.866Z,25.24
2023-05-21T21:07:48.017Z,25.20
2023-05-21T21:10:17.106Z,25.20
2023-05-21T21:12:44.402Z,25.19
2023-05-21T21:15:12.068Z,25.18
2023-05-21T21:17:39.655Z,25.17
2023-05-21T21:20:08.526Z,25.17
2023-05-21T21:22:35.863Z,25.19
2023-05-21T21:25:03.050Z,25.21
2023-05-21T21:27:31.686Z,25.30
2023-05-21T21:29:58.807Z,25.28
2023-05-21T21:32:26.606Z,25.23
2023-05-21T21:34:53.764Z,25.24
2023-05-21T21:37:21.047Z,25.16
2023-05-21T21:39:48.229Z,25.02
2023-05-21T21:42:15.636Z,24.98
2023-05-21T21:44:44.393Z,24.91
2023-05-21T21:47:12.010Z,24.84
2023-05-21T21:49:39.219Z,24.85
2023-05-21T21:52:06.938Z,24.81
2023-05-21T21:54:34.348Z,24.82
2023-05-21T21:57:01.566Z,24.81
2023-05-21T21:59:28.730Z,24.80
2023-05-21T22:01:57.490Z,24.80
2023-05-21T22:04:24.711Z,24.80
2023-05-21T22:06:51.927Z,24.81
2023-05-21T22:09:19.452Z,24.77
2023-05-21T22:11:46.730Z,24.77
2023-05-21T22:14:14.057Z,24.78
2023-05-21T22:16:41.214Z,24.88
2023-05-21T22:19:10.081Z,24.93
2023-05-21T22:21:37.594Z,24.87
2023-05-21T22:24:05.074Z,24.93
2023-05-21T22:26:32.209Z,24.90
2023-05-21T22:28:59.423Z,24.88
2023-05-21T22:31:27.133Z,24.90
2023-05-21T22:33:54.212Z,24.88
2023-05-21T22:36:22.811Z,24.83
2023-05-21T22:38:50.071Z,24.84
2023-05-21T22:41:17.670Z,24.82
2023-05-21T22:43:44.897Z,24.77
2023-05-21T22:46:12.191Z,24.77
2023-05-21T22:48:39.353Z,24.80
2023-05-21T22:51:06.793Z,24.82
2023-05-21T22:53:35.519Z,24.76
2023-05-21T22:56:02.697Z,24.76
2023-05-21T22:58:29.833Z,24.74
2023-05-21T23:00:57.517Z,24.73
2023-05-21T23:03:24.833Z,24.68
2023-05-21T23:05:52.007Z,24.64
2023-05-21T23:08:19.451Z,24.64
2023-05-21T23:10:48.015Z,24.65
2023-05-21T23:13:15.146Z,24.66
2023-05-21T23:15:42.311Z,24.62
2023-05-21T23:18:09.510Z,24.58
2023-05-21T23:20:36.988Z,24.57
2023-05-21T23:23:04.512Z,24.59
2023-05-21T23:25:31.679Z,24.53
2023-05-21T23:28:00.306Z,24.45
2023-05-21T23:30:27.392Z,24.47
2023-05-21T23:32:54.545Z,24.46
2023-05-21T23:35:21.843Z,24.37
2023-05-21T23:37:49.046Z,24.31
2023-05-21T23:40:16.334Z,24.27
2023-05-21T23:42:43.950Z,24.24
2023-05-21T23:45:12.764Z,24.19
2023-05-21T23:47:40.079Z,24.14
2023-05-21T23:50:08.849Z,24.10
2023-05-21T23:52:36.053Z,24.10
2023-05-21T23:55:03.132Z,24.26
2023-05-21T23:57:30.310Z,24.24
2023-05-21T23:59:57.455Z,24.23
